sensor_id;sensor_type;location;lat;lon;timestamp;P1;durP1;ratioP1;P2;durP2;ratioP2
17917;SDS011;9084;50.956;3.106;2023-05-07T00:02:18;6.38;;;4.20;;
17917;SDS011;9084;50.956;3.106;2023-05-07T00:04:44;6.38;;;4.68;;
17917;SDS011;9084;50.956;3.106;2023-05-07T00:07:10;5.15;;;4.40;;
17917;SDS011;9084;50.956;3.106;2023-05-07T00:09:38;7.07;;;4.22;;
17917;SDS011;9084;50.956;3.106;2023-05-07T00:12:03;8.30;;;4.85;;
17917;SDS011;9084;50.956;3.106;2023-05-07T00:14:29;6.38;;;4.00;;
17917;SDS011;9084;50.956;3.106;2023-05-07T00:16:57;6.75;;;4.38;;
17917;SDS011;9084;50.956;3.106;2023-05-07T00:19:23;6.43;;;4.10;;
17917;SDS011;9084;50.956;3.106;2023-05-07T00:21:49;7.00;;;4.57;;
17917;SDS011;9084;50.956;3.106;2023-05-07T00:24:14;6.93;;;4.40;;
17917;SDS011;9084;50.956;3.106;2023-05-07T00:26:42;6.30;;;4.13;;
17917;SDS011;9084;50.956;3.106;2023-05-07T00:29:08;5.95;;;4.03;;
17917;SDS011;9084;50.956;3.106;2023-05-07T00:31:33;8.07;;;4.20;;
17917;SDS011;9084;50.956;3.106;2023-05-07T00:34:00;7.05;;;4.55;;
17917;SDS011;9084;50.956;3.106;2023-05-07T00:36:25;7.57;;;4.35;;
17917;SDS011;9084;50.956;3.106;2023-05-07T00:38:54;6.20;;;4.30;;
17917;SDS011;9084;50.956;3.106;2023-05-07T00:41:20;7.45;;;4.35;;
17917;SDS011;9084;50.956;3.106;2023-05-07T00:43:46;7.60;;;4.53;;
17917;SDS011;9084;50.956;3.106;2023-05-07T00:46:12;7.25;;;4.22;;
17917;SDS011;9084;50.956;3.106;2023-05-07T00:48:41;6.70;;;4.35;;
17917;SDS011;9084;50.956;3.106;2023-05-07T00:51:10;7.45;;;4.00;;
17917;SDS011;9084;50.956;3.106;2023-05-07T00:53:36;9.88;;;4.25;;
17917;SDS011;9084;50.956;3.106;2023-05-07T00:56:05;6.60;;;4.20;;
17917;SDS011;9084;50.956;3.106;2023-05-07T00:58:32;7.57;;;4.45;;
17917;SDS011;9084;50.956;3.106;2023-05-07T01:00:58;6.68;;;4.50;;
17917;SDS011;9084;50.956;3.106;2023-05-07T01:03:26;6.82;;;4.43;;
17917;SDS011;9084;50.956;3.106;2023-05-07T01:05:52;6.93;;;4.30;;
17917;SDS011;9084;50.956;3.106;2023-05-07T01:08:22;7.78;;;4.47;;
17917;SDS011;9084;50.956;3.106;2023-05-07T01:10:49;5.97;;;4.40;;
17917;SDS011;9084;50.956;3.106;2023-05-07T01:13:21;9.77;;;4.40;;
17917;SDS011;9084;50.956;3.106;2023-05-07T01:15:50;7.82;;;5.00;;
17917;SDS011;9084;50.956;3.106;2023-05-07T01:18:15;6.82;;;4.57;;
17917;SDS011;9084;50.956;3.106;2023-05-07T01:20:41;10.07;;;4.60;;
17917;SDS011;9084;50.956;3.106;2023-05-07T01:23:07;8.60;;;4.60;;
17917;SDS011;9084;50.956;3.106;2023-05-07T01:25:35;8.00;;;4.72;;
17917;SDS011;9084;50.956;3.106;2023-05-07T01:28:01;5.53;;;4.05;;
17917;SDS011;9084;50.956;3.106;2023-05-07T01:30:27;6.68;;;4.10;;
17917;SDS011;9084;50.956;3.106;2023-05-07T01:35:27;6.45;;;4.28;;
17917;SDS011;9084;50.956;3.106;2023-05-07T01:37:59;6.32;;;4.45;;
17917;SDS011;9084;50.956;3.106;2023-05-07T01:40:25;9.23;;;5.15;;
17917;SDS011;9084;50.956;3.106;2023-05-07T01:42:52;6.30;;;4.60;;
17917;SDS011;9084;50.956;3.106;2023-05-07T01:45:19;5.07;;;4.55;;
17917;SDS011;9084;50.956;3.106;2023-05-07T01:47:47;7.88;;;4.25;;
17917;SDS011;9084;50.956;3.106;2023-05-07T01:50:14;7.30;;;4.82;;
17917;SDS011;9084;50.956;3.106;2023-05-07T01:52:41;7.32;;;5.47;;
17917;SDS011;9084;50.956;3.106;2023-05-07T01:55:10;6.20;;;5.15;;
17917;SDS011;9084;50.956;3.106;2023-05-07T01:57:38;6.63;;;5.30;;
17917;SDS011;9084;50.956;3.106;2023-05-07T02:00:09;5.97;;;4.43;;
17917;SDS011;9084;50.956;3.106;2023-05-07T02:02:37;6.35;;;4.82;;
17917;SDS011;9084;50.956;3.106;2023-05-07T02:05:05;6.38;;;4.88;;
17917;SDS011;9084;50.956;3.106;2023-05-07T02:07:33;9.98;;;4.57;;
17917;SDS011;9084;50.956;3.106;2023-05-07T02:09:59;6.40;;;4.68;;
17917;SDS011;9084;50.956;3.106;2023-05-07T02:12:28;7.65;;;5.10;;
17917;SDS011;9084;50.956;3.106;2023-05-07T02:14:53;6.35;;;4.57;;
17917;SDS011;9084;50.956;3.106;2023-05-07T02:17:21;6.85;;;4.70;;
17917;SDS011;9084;50.956;3.106;2023-05-07T02:19:47;7.20;;;4.90;;
17917;SDS011;9084;50.956;3.106;2023-05-07T02:22:13;7.70;;;4.82;;
17917;SDS011;9084;50.956;3.106;2023-05-07T02:24:38;6.03;;;4.80;;
17917;SDS011;9084;50.956;3.106;2023-05-07T02:27:04;5.68;;;4.50;;
17917;SDS011;9084;50.956;3.106;2023-05-07T02:29:29;7.53;;;5.30;;
17917;SDS011;9084;50.956;3.106;2023-05-07T02:31:55;5.47;;;4.95;;
17917;SDS011;9084;50.956;3.106;2023-05-07T02:34:21;6.35;;;4.57;;
17917;SDS011;9084;50.956;3.106;2023-05-07T02:36:46;6.68;;;5.13;;
17917;SDS011;9084;50.956;3.106;2023-05-07T02:39:12;5.15;;;4.65;;
17917;SDS011;9084;50.956;3.106;2023-05-07T02:41:41;5.68;;;4.97;;
17917;SDS011;9084;50.956;3.106;2023-05-07T02:44:09;7.55;;;5.28;;
17917;SDS011;9084;50.956;3.106;2023-05-07T02:46:37;5.85;;;5.25;;
17917;SDS011;9084;50.956;3.106;2023-05-07T02:49:03;5.85;;;4.63;;
17917;SDS011;9084;50.956;3.106;2023-05-07T02:51:29;6.88;;;4.90;;
17917;SDS011;9084;50.956;3.106;2023-05-07T02:53:55;7.93;;;5.40;;
17917;SDS011;9084;50.956;3.106;2023-05-07T02:56:21;5.93;;;5.05;;
17917;SDS011;9084;50.956;3.106;2023-05-07T02:58:47;7.80;;;5.15;;
17917;SDS011;9084;50.956;3.106;2023-05-07T03:01:15;6.18;;;4.43;;
17917;SDS011;9084;50.956;3.106;2023-05-07T03:03:41;8.00;;;5.15;;
17917;SDS011;9084;50.956;3.106;2023-05-07T03:06:06;5.30;;;4.68;;
17917;SDS011;9084;50.956;3.106;2023-05-07T03:08:34;8.45;;;5.90;;
17917;SDS011;9084;50.956;3.106;2023-05-07T03:11:01;7.30;;;4.40;;
17917;SDS011;9084;50.956;3.106;2023-05-07T03:13:29;7.47;;;5.75;;
17917;SDS011;9084;50.956;3.106;2023-05-07T03:15:55;5.88;;;5.18;;
17917;SDS011;9084;50.956;3.106;2023-05-07T03:18:23;5.55;;;4.95;;
17917;SDS011;9084;50.956;3.106;2023-05-07T03:20:51;6.45;;;4.95;;
17917;SDS011;9084;50.956;3.106;2023-05-07T03:23:17;7.38;;;4.88;;
17917;SDS011;9084;50.956;3.106;2023-05-07T03:25:45;7.10;;;4.70;;
17917;SDS011;9084;50.956;3.106;2023-05-07T03:28:10;9.32;;;6.00;;
17917;SDS011;9084;50.956;3.106;2023-05-07T03:30:38;7.95;;;5.35;;
17917;SDS011;9084;50.956;3.106;2023-05-07T03:33:07;6.25;;;4.88;;
17917;SDS011;9084;50.956;3.106;2023-05-07T03:35:34;7.75;;;5.65;;
17917;SDS011;9084;50.956;3.106;2023-05-07T03:38:00;7.18;;;5.28;;
17917;SDS011;9084;50.956;3.106;2023-05-07T03:40:26;6.85;;;5.85;;
17917;SDS011;9084;50.956;3.106;2023-05-07T03:42:54;8.15;;;4.90;;
17917;SDS011;9084;50.956;3.106;2023-05-07T03:45:20;6.57;;;5.20;;
17917;SDS011;9084;50.956;3.106;2023-05-07T03:47:45;6.90;;;5.00;;
17917;SDS011;9084;50.956;3.106;2023-05-07T03:50:11;7.25;;;5.55;;
17917;SDS011;9084;50.956;3.106;2023-05-07T03:52:36;9.02;;;6.05;;
17917;SDS011;9084;50.956;3.106;2023-05-07T03:55:02;7.75;;;4.75;;
17917;SDS011;9084;50.956;3.106;2023-05-07T03:57:28;8.00;;;5.57;;
17917;SDS011;9084;50.956;3.106;2023-05-07T03:59:56;7.30;;;5.82;;
17917;SDS011;9084;50.956;3.106;2023-05-07T04:02:24;9.73;;;5.90;;
17917;SDS011;9084;50.956;3.106;2023-05-07T04:04:52;7.78;;;5.75;;
17917;SDS011;9084;50.956;3.106;2023-05-07T04:07:20;7.28;;;5.60;;
17917;SDS011;9084;50.956;3.106;2023-05-07T04:09:45;8.45;;;5.57;;
17917;SDS011;9084;50.956;3.106;2023-05-07T04:12:13;9.23;;;6.28;;
17917;SDS011;9084;50.956;3.106;2023-05-07T04:14:41;5.70;;;4.82;;
17917;SDS011;9084;50.956;3.106;2023-05-07T04:17:09;6.88;;;4.97;;
17917;SDS011;9084;50.956;3.106;2023-05-07T04:19:35;6.85;;;5.72;;
17917;SDS011;9084;50.956;3.106;2023-05-07T04:22:01;6.70;;;5.80;;
17917;SDS011;9084;50.956;3.106;2023-05-07T04:24:27;9.18;;;5.68;;
17917;SDS011;9084;50.956;3.106;2023-05-07T04:26:56;6.80;;;6.05;;
17917;SDS011;9084;50.956;3.106;2023-05-07T04:29:26;6.63;;;5.75;;
17917;SDS011;9084;50.956;3.106;2023-05-07T04:31:53;7.07;;;5.90;;
17917;SDS011;9084;50.956;3.106;2023-05-07T04:34:23;8.43;;;5.57;;
17917;SDS011;9084;50.956;3.106;2023-05-07T04:36:49;7.82;;;6.20;;
17917;SDS011;9084;50.956;3.106;2023-05-07T04:39:18;6.75;;;6.05;;
17917;SDS011;9084;50.956;3.106;2023-05-07T04:41:43;7.90;;;6.05;;
17917;SDS011;9084;50.956;3.106;2023-05-07T04:44:09;8.65;;;5.93;;
17917;SDS011;9084;50.956;3.106;2023-05-07T04:46:35;6.95;;;5.95;;
17917;SDS011;9084;50.956;3.106;2023-05-07T04:49:01;8.55;;;5.90;;
17917;SDS011;9084;50.956;3.106;2023-05-07T04:51:28;6.03;;;5.43;;
17917;SDS011;9084;50.956;3.106;2023-05-07T04:53:53;8.27;;;6.13;;
17917;SDS011;9084;50.956;3.106;2023-05-07T04:56:19;7.47;;;5.75;;
17917;SDS011;9084;50.956;3.106;2023-05-07T04:58:45;6.63;;;5.93;;
17917;SDS011;9084;50.956;3.106;2023-05-07T05:01:11;7.43;;;6.10;;
17917;SDS011;9084;50.956;3.106;2023-05-07T05:03:36;10.27;;;6.47;;
17917;SDS011;9084;50.956;3.106;2023-05-07T05:06:07;9.25;;;6.35;;
17917;SDS011;9084;50.956;3.106;2023-05-07T05:08:32;8.07;;;5.80;;
17917;SDS011;9084;50.956;3.106;2023-05-07T05:10:58;7.10;;;6.07;;
17917;SDS011;9084;50.956;3.106;2023-05-07T05:13:28;7.03;;;5.97;;
17917;SDS011;9084;50.956;3.106;2023-05-07T05:15:55;7.57;;;6.35;;
17917;SDS011;9084;50.956;3.106;2023-05-07T05:18:20;8.05;;;6.05;;
17917;SDS011;9084;50.956;3.106;2023-05-07T05:20:47;9.10;;;6.78;;
17917;SDS011;9084;50.956;3.106;2023-05-07T05:23:13;10.13;;;6.40;;
17917;SDS011;9084;50.956;3.106;2023-05-07T05:25:38;7.72;;;6.68;;
17917;SDS011;9084;50.956;3.106;2023-05-07T05:28:05;7.97;;;7.07;;
17917;SDS011;9084;50.956;3.106;2023-05-07T05:30:31;7.95;;;6.90;;
17917;SDS011;9084;50.956;3.106;2023-05-07T05:32:58;8.00;;;6.32;;
17917;SDS011;9084;50.956;3.106;2023-05-07T05:35:24;8.68;;;7.45;;
17917;SDS011;9084;50.956;3.106;2023-05-07T05:37:52;8.43;;;7.00;;
17917;SDS011;9084;50.956;3.106;2023-05-07T05:40:18;10.10;;;6.85;;
17917;SDS011;9084;50.956;3.106;2023-05-07T05:42:46;10.43;;;7.57;;
17917;SDS011;9084;50.956;3.106;2023-05-07T05:45:11;8.60;;;6.70;;
17917;SDS011;9084;50.956;3.106;2023-05-07T05:47:37;9.18;;;7.18;;
17917;SDS011;9084;50.956;3.106;2023-05-07T05:50:04;8.38;;;7.55;;
17917;SDS011;9084;50.956;3.106;2023-05-07T05:52:36;9.52;;;6.95;;
17917;SDS011;9084;50.956;3.106;2023-05-07T05:55:05;8.70;;;7.35;;
17917;SDS011;9084;50.956;3.106;2023-05-07T05:57:34;8.75;;;7.20;;
17917;SDS011;9084;50.956;3.106;2023-05-07T06:00:01;8.77;;;7.45;;
17917;SDS011;9084;50.956;3.106;2023-05-07T06:02:27;8.82;;;7.05;;
17917;SDS011;9084;50.956;3.106;2023-05-07T06:04:55;9.48;;;7.90;;
17917;SDS011;9084;50.956;3.106;2023-05-07T06:07:21;8.88;;;6.90;;
17917;SDS011;9084;50.956;3.106;2023-05-07T06:09:46;9.70;;;7.93;;
17917;SDS011;9084;50.956;3.106;2023-05-07T06:12:12;9.07;;;7.82;;
17917;SDS011;9084;50.956;3.106;2023-05-07T06:14:42;7.40;;;6.63;;
17917;SDS011;9084;50.956;3.106;2023-05-07T06:17:11;10.27;;;7.28;;
17917;SDS011;9084;50.956;3.106;2023-05-07T06:19:36;10.95;;;7.05;;
17917;SDS011;9084;50.956;3.106;2023-05-07T06:22:02;9.70;;;7.82;;
17917;SDS011;9084;50.956;3.106;2023-05-07T06:24:28;8.75;;;7.32;;
17917;SDS011;9084;50.956;3.106;2023-05-07T06:26:56;7.90;;;6.93;;
17917;SDS011;9084;50.956;3.106;2023-05-07T06:29:23;9.15;;;7.47;;
17917;SDS011;9084;50.956;3.106;2023-05-07T06:31:53;12.20;;;8.52;;
17917;SDS011;9084;50.956;3.106;2023-05-07T06:34:19;13.73;;;9.15;;
17917;SDS011;9084;50.956;3.106;2023-05-07T06:36:44;9.20;;;8.13;;
17917;SDS011;9084;50.956;3.106;2023-05-07T06:39:10;10.32;;;8.05;;
17917;SDS011;9084;50.956;3.106;2023-05-07T06:41:35;8.40;;;6.97;;
17917;SDS011;9084;50.956;3.106;2023-05-07T06:44:04;10.85;;;8.40;;
17917;SDS011;9084;50.956;3.106;2023-05-07T06:46:31;12.45;;;9.02;;
17917;SDS011;9084;50.956;3.106;2023-05-07T06:48:57;11.95;;;8.43;;
17917;SDS011;9084;50.956;3.106;2023-05-07T06:51:23;11.05;;;7.93;;
17917;SDS011;9084;50.956;3.106;2023-05-07T06:53:48;9.38;;;7.47;;
17917;SDS011;9084;50.956;3.106;2023-05-07T06:56:14;8.20;;;7.40;;
17917;SDS011;9084;50.956;3.106;2023-05-07T06:58:40;10.48;;;8.15;;
17917;SDS011;9084;50.956;3.106;2023-05-07T07:01:05;10.27;;;8.52;;
17917;SDS011;9084;50.956;3.106;2023-05-07T07:03:31;8.88;;;7.55;;
17917;SDS011;9084;50.956;3.106;2023-05-07T07:05:57;11.02;;;7.53;;
17917;SDS011;9084;50.956;3.106;2023-05-07T07:08:25;8.55;;;7.63;;
17917;SDS011;9084;50.956;3.106;2023-05-07T07:10:50;9.43;;;7.53;;
17917;SDS011;9084;50.956;3.106;2023-05-07T07:13:16;10.88;;;7.32;;
17917;SDS011;9084;50.956;3.106;2023-05-07T07:15:42;9.30;;;7.50;;
17917;SDS011;9084;50.956;3.106;2023-05-07T07:18:11;8.18;;;6.60;;
17917;SDS011;9084;50.956;3.106;2023-05-07T07:20:37;9.60;;;6.47;;
17917;SDS011;9084;50.956;3.106;2023-05-07T07:23:02;8.43;;;7.07;;
17917;SDS011;9084;50.956;3.106;2023-05-07T07:25:28;8.98;;;6.88;;
17917;SDS011;9084;50.956;3.106;2023-05-07T07:27:54;7.90;;;7.03;;
17917;SDS011;9084;50.956;3.106;2023-05-07T07:30:19;8.05;;;6.88;;
17917;SDS011;9084;50.956;3.106;2023-05-07T07:32:47;7.50;;;6.80;;
17917;SDS011;9084;50.956;3.106;2023-05-07T07:35:13;11.52;;;7.65;;
17917;SDS011;9084;50.956;3.106;2023-05-07T07:37:41;10.10;;;7.05;;
17917;SDS011;9084;50.956;3.106;2023-05-07T07:40:11;9.88;;;7.40;;
17917;SDS011;9084;50.956;3.106;2023-05-07T07:42:37;8.30;;;6.72;;
17917;SDS011;9084;50.956;3.106;2023-05-07T07:45:05;8.05;;;6.95;;
17917;SDS011;9084;50.956;3.106;2023-05-07T07:47:31;8.02;;;7.22;;
17917;SDS011;9084;50.956;3.106;2023-05-07T07:49:59;7.60;;;6.50;;
17917;SDS011;9084;50.956;3.106;2023-05-07T07:52:24;9.80;;;7.40;;
17917;SDS011;9084;50.956;3.106;2023-05-07T07:54:50;7.40;;;6.65;;
17917;SDS011;9084;50.956;3.106;2023-05-07T07:57:18;9.55;;;6.93;;
17917;SDS011;9084;50.956;3.106;2023-05-07T07:59:43;9.60;;;6.55;;
17917;SDS011;9084;50.956;3.106;2023-05-07T08:02:09;6.35;;;5.70;;
17917;SDS011;9084;50.956;3.106;2023-05-07T08:04:35;7.05;;;6.35;;
17917;SDS011;9084;50.956;3.106;2023-05-07T08:07:03;6.60;;;5.82;;
17917;SDS011;9084;50.956;3.106;2023-05-07T08:09:29;6.13;;;5.53;;
17917;SDS011;9084;50.956;3.106;2023-05-07T08:11:54;8.35;;;5.93;;
17917;SDS011;9084;50.956;3.106;2023-05-07T08:14:22;7.68;;;5.22;;
17917;SDS011;9084;50.956;3.106;2023-05-07T08:16:48;7.15;;;5.32;;
17917;SDS011;9084;50.956;3.106;2023-05-07T08:19:16;5.45;;;4.63;;
17917;SDS011;9084;50.956;3.106;2023-05-07T08:21:42;4.82;;;4.32;;
17917;SDS011;9084;50.956;3.106;2023-05-07T08:24:12;5.03;;;4.45;;
17917;SDS011;9084;50.956;3.106;2023-05-07T08:26:38;5.38;;;4.53;;
17917;SDS011;9084;50.956;3.106;2023-05-07T08:29:04;6.05;;;4.50;;
17917;SDS011;9084;50.956;3.106;2023-05-07T08:31:33;7.35;;;3.85;;
17917;SDS011;9084;50.956;3.106;2023-05-07T08:33:58;5.40;;;4.07;;
17917;SDS011;9084;50.956;3.106;2023-05-07T08:36:31;4.15;;;3.50;;
17917;SDS011;9084;50.956;3.106;2023-05-07T08:38:59;4.18;;;3.42;;
17917;SDS011;9084;50.956;3.106;2023-05-07T08:41:25;4.63;;;3.35;;
17917;SDS011;9084;50.956;3.106;2023-05-07T08:43:50;3.70;;;2.78;;
17917;SDS011;9084;50.956;3.106;2023-05-07T08:46:17;5.00;;;2.80;;
17917;SDS011;9084;50.956;3.106;2023-05-07T08:48:51;4.28;;;2.83;;
17917;SDS011;9084;50.956;3.106;2023-05-07T08:51:18;4.28;;;3.10;;
17917;SDS011;9084;50.956;3.106;2023-05-07T08:53:47;4.47;;;3.58;;
17917;SDS011;9084;50.956;3.106;2023-05-07T08:56:16;4.70;;;3.50;;
17917;SDS011;9084;50.956;3.106;2023-05-07T08:58:43;6.10;;;3.70;;
17917;SDS011;9084;50.956;3.106;2023-05-07T09:01:10;6.43;;;3.65;;
17917;SDS011;9084;50.956;3.106;2023-05-07T09:03:44;4.40;;;3.70;;
17917;SDS011;9084;50.956;3.106;2023-05-07T09:06:13;5.28;;;4.57;;
17917;SDS011;9084;50.956;3.106;2023-05-07T09:08:39;6.18;;;4.95;;
17917;SDS011;9084;50.956;3.106;2023-05-07T09:11:07;5.53;;;5.03;;
17917;SDS011;9084;50.956;3.106;2023-05-07T09:13:33;7.20;;;4.47;;
17917;SDS011;9084;50.956;3.106;2023-05-07T09:16:01;6.03;;;5.43;;
17917;SDS011;9084;50.956;3.106;2023-05-07T09:18:46;7.07;;;4.82;;
17917;SDS011;9084;50.956;3.106;2023-05-07T09:21:16;5.78;;;4.70;;
17917;SDS011;9084;50.956;3.106;2023-05-07T09:23:43;5.85;;;4.75;;
17917;SDS011;9084;50.956;3.106;2023-05-07T09:26:11;6.05;;;5.43;;
17917;SDS011;9084;50.956;3.106;2023-05-07T09:28:42;6.65;;;6.05;;
17917;SDS011;9084;50.956;3.106;2023-05-07T09:31:08;5.32;;;4.50;;
17917;SDS011;9084;50.956;3.106;2023-05-07T09:33:37;4.30;;;3.90;;
17917;SDS011;9084;50.956;3.106;2023-05-07T09:36:04;5.80;;;3.92;;
17917;SDS011;9084;50.956;3.106;2023-05-07T09:38:31;6.30;;;3.85;;
17917;SDS011;9084;50.956;3.106;2023-05-07T09:41:02;4.75;;;3.50;;
17917;SDS011;9084;50.956;3.106;2023-05-07T09:43:37;6.38;;;3.63;;
17917;SDS011;9084;50.956;3.106;2023-05-07T09:46:08;6.25;;;3.83;;
17917;SDS011;9084;50.956;3.106;2023-05-07T09:48:42;6.22;;;4.28;;
17917;SDS011;9084;50.956;3.106;2023-05-07T09:51:15;5.10;;;3.92;;
17917;SDS011;9084;50.956;3.106;2023-05-07T09:53:52;4.53;;;3.60;;
17917;SDS011;9084;50.956;3.106;2023-05-07T09:56:18;5.13;;;4.35;;
17917;SDS011;9084;50.956;3.106;2023-05-07T09:58:45;5.63;;;4.22;;
17917;SDS011;9084;50.956;3.106;2023-05-07T10:01:11;4.60;;;3.65;;
17917;SDS011;9084;50.956;3.106;2023-05-07T10:03:39;5.15;;;4.60;;
17917;SDS011;9084;50.956;3.106;2023-05-07T10:06:08;4.55;;;3.63;;
17917;SDS011;9084;50.956;3.106;2023-05-07T10:08:40;4.63;;;3.95;;
17917;SDS011;9084;50.956;3.106;2023-05-07T10:11:08;5.07;;;3.97;;
17917;SDS011;9084;50.956;3.106;2023-05-07T10:13:37;4.85;;;3.58;;
17917;SDS011;9084;50.956;3.106;2023-05-07T10:16:05;4.57;;;4.18;;
17917;SDS011;9084;50.956;3.106;2023-05-07T10:18:31;5.35;;;4.38;;
17917;SDS011;9084;50.956;3.106;2023-05-07T10:21:42;5.03;;;4.55;;
17917;SDS011;9084;50.956;3.106;2023-05-07T10:23:50;4.22;;;3.80;;
17917;SDS011;9084;50.956;3.106;2023-05-07T10:26:22;5.15;;;3.58;;
17917;SDS011;9084;50.956;3.106;2023-05-07T10:28:53;4.28;;;3.60;;
17917;SDS011;9084;50.956;3.106;2023-05-07T10:31:29;5.07;;;3.60;;
17917;SDS011;9084;50.956;3.106;2023-05-07T10:34:10;4.40;;;2.95;;
17917;SDS011;9084;50.956;3.106;2023-05-07T10:36:44;3.97;;;2.53;;
17917;SDS011;9084;50.956;3.106;2023-05-07T10:39:12;3.08;;;2.15;;
17917;SDS011;9084;50.956;3.106;2023-05-07T10:41:38;3.45;;;1.83;;
17917;SDS011;9084;50.956;3.106;2023-05-07T10:44:06;2.63;;;1.50;;
17917;SDS011;9084;50.956;3.106;2023-05-07T10:46:35;2.50;;;1.80;;
17917;SDS011;9084;50.956;3.106;2023-05-07T10:51:31;2.83;;;1.65;;
17917;SDS011;9084;50.956;3.106;2023-05-07T10:56:36;3.33;;;1.70;;
17917;SDS011;9084;50.956;3.106;2023-05-07T11:02:03;5.10;;;1.80;;
17917;SDS011;9084;50.956;3.106;2023-05-07T11:04:31;3.00;;;1.92;;
17917;SDS011;9084;50.956;3.106;2023-05-07T11:12:18;2.33;;;1.60;;
17917;SDS011;9084;50.956;3.106;2023-05-07T11:15:05;2.08;;;1.75;;
17917;SDS011;9084;50.956;3.106;2023-05-07T11:18:01;2.10;;;1.90;;
17917;SDS011;9084;50.956;3.106;2023-05-07T11:26:18;2.90;;;1.50;;
17917;SDS011;9084;50.956;3.106;2023-05-07T11:28:46;3.05;;;1.98;;
17917;SDS011;9084;50.956;3.106;2023-05-07T11:31:13;4.03;;;2.95;;
17917;SDS011;9084;50.956;3.106;2023-05-07T11:33:41;3.80;;;3.50;;
17917;SDS011;9084;50.956;3.106;2023-05-07T11:36:13;5.05;;;4.55;;
17917;SDS011;9084;50.956;3.106;2023-05-07T11:38:42;4.55;;;4.15;;
17917;SDS011;9084;50.956;3.106;2023-05-07T11:41:08;4.22;;;3.92;;
17917;SDS011;9084;50.956;3.106;2023-05-07T11:43:36;3.67;;;3.35;;
17917;SDS011;9084;50.956;3.106;2023-05-07T11:46:08;4.25;;;3.40;;
17917;SDS011;9084;50.956;3.106;2023-05-07T11:48:36;3.47;;;3.13;;
17917;SDS011;9084;50.956;3.106;2023-05-07T11:51:05;3.88;;;2.78;;
17917;SDS011;9084;50.956;3.106;2023-05-07T11:53:40;4.20;;;2.22;;
17917;SDS011;9084;50.956;3.106;2023-05-07T11:56:13;2.67;;;2.00;;
17917;SDS011;9084;50.956;3.106;2023-05-07T11:58:40;2.63;;;2.15;;
17917;SDS011;9084;50.956;3.106;2023-05-07T12:01:10;2.95;;;2.20;;
17917;SDS011;9084;50.956;3.106;2023-05-07T12:03:37;3.03;;;2.33;;
17917;SDS011;9084;50.956;3.106;2023-05-07T12:06:07;2.42;;;2.20;;
17917;SDS011;9084;50.956;3.106;2023-05-07T12:08:36;2.58;;;2.20;;
17917;SDS011;9084;50.956;3.106;2023-05-07T12:11:05;4.40;;;2.45;;
17917;SDS011;9084;50.956;3.106;2023-05-07T12:13:32;2.35;;;1.75;;
17917;SDS011;9084;50.956;3.106;2023-05-07T12:16:00;2.08;;;1.67;;
17917;SDS011;9084;50.956;3.106;2023-05-07T12:18:28;2.47;;;1.80;;
17917;SDS011;9084;50.956;3.106;2023-05-07T12:20:56;2.17;;;1.45;;
17917;SDS011;9084;50.956;3.106;2023-05-07T12:23:24;3.10;;;1.45;;
17917;SDS011;9084;50.956;3.106;2023-05-07T12:25:49;1.70;;;1.35;;
17917;SDS011;9084;50.956;3.106;2023-05-07T12:28:18;2.67;;;1.80;;
17917;SDS011;9084;50.956;3.106;2023-05-07T12:30:45;4.10;;;1.88;;
17917;SDS011;9084;50.956;3.106;2023-05-07T12:33:19;12.75;;;11.55;;
17917;SDS011;9084;50.956;3.106;2023-05-07T12:35:49;10.05;;;9.15;;
17917;SDS011;9084;50.956;3.106;2023-05-07T12:38:16;8.88;;;6.32;;
17917;SDS011;9084;50.956;3.106;2023-05-07T12:43:18;4.35;;;3.92;;
17917;SDS011;9084;50.956;3.106;2023-05-07T12:45:52;4.30;;;3.90;;
17917;SDS011;9084;50.956;3.106;2023-05-07T12:48:19;5.07;;;4.45;;
17917;SDS011;9084;50.956;3.106;2023-05-07T12:50:48;4.78;;;4.18;;
17917;SDS011;9084;50.956;3.106;2023-05-07T12:53:22;5.80;;;4.25;;
17917;SDS011;9084;50.956;3.106;2023-05-07T12:55:52;5.40;;;4.30;;
17917;SDS011;9084;50.956;3.106;2023-05-07T13:01:08;5.95;;;3.85;;
17917;SDS011;9084;50.956;3.106;2023-05-07T13:03:35;4.80;;;4.30;;
17917;SDS011;9084;50.956;3.106;2023-05-07T13:06:04;5.63;;;5.00;;
17917;SDS011;9084;50.956;3.106;2023-05-07T13:08:40;4.65;;;4.25;;
17917;SDS011;9084;50.956;3.106;2023-05-07T13:11:08;4.65;;;3.97;;
17917;SDS011;9084;50.956;3.106;2023-05-07T13:13:38;3.28;;;2.97;;
17917;SDS011;9084;50.956;3.106;2023-05-07T13:16:05;4.45;;;3.88;;
17917;SDS011;9084;50.956;3.106;2023-05-07T13:18:35;3.42;;;3.13;;
17917;SDS011;9084;50.956;3.106;2023-05-07T13:21:02;3.08;;;2.80;;
17917;SDS011;9084;50.956;3.106;2023-05-07T13:23:30;2.75;;;2.40;;
17917;SDS011;9084;50.956;3.106;2023-05-07T13:25:58;2.80;;;2.50;;
17917;SDS011;9084;50.956;3.106;2023-05-07T13:28:24;3.22;;;2.60;;
17917;SDS011;9084;50.956;3.106;2023-05-07T13:30:55;2.97;;;2.63;;
17917;SDS011;9084;50.956;3.106;2023-05-07T13:33:20;3.33;;;2.80;;
17917;SDS011;9084;50.956;3.106;2023-05-07T13:35:49;3.90;;;2.75;;
17917;SDS011;9084;50.956;3.106;2023-05-07T13:38:16;3.42;;;2.42;;
17917;SDS011;9084;50.956;3.106;2023-05-07T13:40:43;2.58;;;2.25;;
17917;SDS011;9084;50.956;3.106;2023-05-07T13:43:11;2.80;;;2.30;;
17917;SDS011;9084;50.956;3.106;2023-05-07T13:45:36;2.83;;;2.13;;
17917;SDS011;9084;50.956;3.106;2023-05-07T13:48:02;3.20;;;2.50;;
17917;SDS011;9084;50.956;3.106;2023-05-07T13:50:28;2.85;;;2.22;;
17917;SDS011;9084;50.956;3.106;2023-05-07T13:52:54;3.40;;;2.53;;
17917;SDS011;9084;50.956;3.106;2023-05-07T13:55:21;2.50;;;2.30;;
17917;SDS011;9084;50.956;3.106;2023-05-07T13:57:58;3.08;;;2.33;;
17917;SDS011;9084;50.956;3.106;2023-05-07T14:00:25;3.05;;;2.30;;
17917;SDS011;9084;50.956;3.106;2023-05-07T14:02:52;2.45;;;2.25;;
17917;SDS011;9084;50.956;3.106;2023-05-07T14:05:18;3.40;;;2.42;;
17917;SDS011;9084;50.956;3.106;2023-05-07T14:07:45;3.28;;;2.65;;
17917;SDS011;9084;50.956;3.106;2023-05-07T14:10:19;2.65;;;2.45;;
17917;SDS011;9084;50.956;3.106;2023-05-07T14:12:45;3.60;;;2.72;;
17917;SDS011;9084;50.956;3.106;2023-05-07T14:15:15;3.53;;;2.30;;
17917;SDS011;9084;50.956;3.106;2023-05-07T14:17:41;3.17;;;2.80;;
17917;SDS011;9084;50.956;3.106;2023-05-07T14:20:12;3.10;;;2.80;;
17917;SDS011;9084;50.956;3.106;2023-05-07T14:22:40;4.47;;;3.22;;
17917;SDS011;9084;50.956;3.106;2023-05-07T14:25:06;4.53;;;3.13;;
17917;SDS011;9084;50.956;3.106;2023-05-07T14:27:34;3.95;;;2.75;;
17917;SDS011;9084;50.956;3.106;2023-05-07T14:30:02;3.67;;;2.58;;
17917;SDS011;9084;50.956;3.106;2023-05-07T14:32:30;6.07;;;3.75;;
17917;SDS011;9084;50.956;3.106;2023-05-07T14:34:56;4.13;;;3.00;;
17917;SDS011;9084;50.956;3.106;2023-05-07T14:37:22;4.95;;;3.17;;
17917;SDS011;9084;50.956;3.106;2023-05-07T14:39:49;3.60;;;2.38;;
17917;SDS011;9084;50.956;3.106;2023-05-07T14:42:14;3.58;;;2.33;;
17917;SDS011;9084;50.956;3.106;2023-05-07T14:44:40;7.57;;;4.53;;
17917;SDS011;9084;50.956;3.106;2023-05-07T14:47:10;2.78;;;2.35;;
17917;SDS011;9084;50.956;3.106;2023-05-07T14:49:38;2.50;;;2.28;;
17917;SDS011;9084;50.956;3.106;2023-05-07T14:52:03;3.50;;;2.10;;
17917;SDS011;9084;50.956;3.106;2023-05-07T14:54:33;7.70;;;4.00;;
17917;SDS011;9084;50.956;3.106;2023-05-07T14:57:00;6.03;;;4.05;;
17917;SDS011;9084;50.956;3.106;2023-05-07T14:59:26;2.72;;;2.20;;
17917;SDS011;9084;50.956;3.106;2023-05-07T15:01:54;9.40;;;5.55;;
17917;SDS011;9084;50.956;3.106;2023-05-07T15:04:23;2.78;;;2.42;;
17917;SDS011;9084;50.956;3.106;2023-05-07T15:06:49;2.38;;;1.83;;
17917;SDS011;9084;50.956;3.106;2023-05-07T15:09:14;3.75;;;2.40;;
17917;SDS011;9084;50.956;3.106;2023-05-07T15:11:40;5.78;;;3.03;;
17917;SDS011;9084;50.956;3.106;2023-05-07T15:14:08;2.80;;;2.10;;
17917;SDS011;9084;50.956;3.106;2023-05-07T15:16:34;10.70;;;5.55;;
17917;SDS011;9084;50.956;3.106;2023-05-07T15:19:00;5.68;;;3.90;;
17917;SDS011;9084;50.956;3.106;2023-05-07T15:21:25;3.35;;;2.15;;
17917;SDS011;9084;50.956;3.106;2023-05-07T15:23:51;2.70;;;1.58;;
17917;SDS011;9084;50.956;3.106;2023-05-07T15:26:20;7.32;;;3.70;;
17917;SDS011;9084;50.956;3.106;2023-05-07T15:28:45;3.25;;;2.15;;
17917;SDS011;9084;50.956;3.106;2023-05-07T15:31:13;2.95;;;2.15;;